^^
nws-alerts.php - 1.15 - 19-Aug-2013 - NWS Public Alerts
Station Historical Data
Daily Summary for March 13, 2018 Units:  Both    English   Metric
« Previous Day
Next Day »
Daily Weekly Monthly Yearly Custom
  High: Low: Average:
Temperature: 70.6 °F /  21.4 °C 40.0 °F /  4.4 °C 55.8 °F /  13.2 °C
Dew Point: 50.0 °F /  10 °C 35.9 °F /  2.2 °C 41.7 °F /  5.4 °C
Humidity: 91% 30% 62%
Wind Speed: 12.0mph /  19.3km/h - 4mph /  6.4km/h
Wind Gust: 19.0mph /  30.6km/h - -
Wind- - SW
Pressure: 30.15 in /  1020.9 hPa 30.04 in /  1017.2 hPa -
Precipitation: 0.00 in /  0 mm    
Historical Graphs
 
 
Tabular Data for March 13, 2018
Time Temperature Dew Point Pressure Wind Wind Speed Wind Gust Humidity Rainfall Rate (Hourly) Conditions
00:00 55.5 °F /  13.1 °C 48.8 °F /  9.3 °C 30.05in /  1017.5hPa WNW 4.9mph /  7.9km/h 6.9mph /  11.1km/h 78% 0.00in /  0mm 0.0 W/m2
00:05 55.4 °F /  13 °C 48.7 °F /  9.3 °C 30.04in /  1017.2hPa NW 5.0mph /  8km/h 8.0mph /  12.9km/h 78% 0.00in /  0mm 0.0 W/m2
00:10 55.4 °F /  13 °C 48.7 °F /  9.3 °C 30.04in /  1017.2hPa ENE 4.5mph /  7.2km/h 9.2mph /  14.8km/h 78% 0.00in /  0mm 0.0 W/m2
00:15 55.3 °F /  12.9 °C 48.6 °F /  9.2 °C 30.04in /  1017.2hPa NNW 2.0mph /  3.2km/h 9.0mph /  14.5km/h 78% 0.00in /  0mm 0.0 W/m2
00:20 55.2 °F /  12.9 °C 48.5 °F /  9.2 °C 30.05in /  1017.5hPa NNE 5.7mph /  9.2km/h 13.2mph /  21.2km/h 78% 0.00in /  0mm 0.0 W/m2
00:25 55.2 °F /  12.9 °C 48.4 °F /  9.1 °C 30.05in /  1017.5hPa North 6.0mph /  9.7km/h 10.0mph /  16.1km/h 78% 0.00in /  0mm 0.0 W/m2
00:30 54.9 °F /  12.7 °C 48.2 °F /  9 °C 30.05in /  1017.5hPa NW 3.5mph /  5.6km/h 3.5mph /  5.6km/h 78% 0.00in /  0mm 0.0 W/m2
00:35 54.8 °F /  12.7 °C 48.1 °F /  8.9 °C 30.06in /  1017.8hPa NNW 5.0mph /  8km/h 9.0mph /  14.5km/h 78% 0.00in /  0mm 0.0 W/m2
00:40 54.6 °F /  12.6 °C 47.9 °F /  8.8 °C 30.06in /  1017.8hPa NNW 5.0mph /  8km/h 8.0mph /  12.9km/h 78% 0.00in /  0mm 0.0 W/m2
00:45 54.4 °F /  12.4 °C 47.7 °F /  8.7 °C 30.06in /  1017.8hPa NW 3.0mph /  4.8km/h 8.0mph /  12.9km/h 78% 0.00in /  0mm 0.0 W/m2
00:50 54.3 °F /  12.4 °C 47.3 °F /  8.5 °C 30.06in /  1017.8hPa NNW 7.0mph /  11.3km/h 13.0mph /  20.9km/h 77% 0.00in /  0mm 0.0 W/m2
00:55 54.3 °F /  12.4 °C 47.2 °F /  8.4 °C 30.06in /  1017.8hPa NNW 7.0mph /  11.3km/h 12.0mph /  19.3km/h 77% 0.00in /  0mm 0.0 W/m2
01:00 54.2 °F /  12.3 °C 47.1 °F /  8.4 °C 30.06in /  1017.8hPa NNW 6.0mph /  9.7km/h 10.0mph /  16.1km/h 77% 0.00in /  0mm 0.0 W/m2
01:05 54.1 °F /  12.3 °C 46.7 °F /  8.2 °C 30.07in /  1018.2hPa NNE 4.0mph /  6.4km/h 8.1mph /  13km/h 76% 0.00in /  0mm 0.0 W/m2
01:10 53.9 °F /  12.2 °C 46.5 °F /  8.1 °C 30.07in /  1018.2hPa NNW 5.0mph /  8km/h 12.0mph /  19.3km/h 76% 0.00in /  0mm 0.0 W/m2
01:15 53.9 °F /  12.2 °C 46.5 °F /  8.1 °C 30.07in /  1018.2hPa NNW 4.6mph /  7.4km/h 9.2mph /  14.8km/h 76% 0.00in /  0mm 0.0 W/m2
01:20 53.8 °F /  12.1 °C 46.4 °F /  8 °C 30.07in /  1018.2hPa NNW 6.0mph /  9.7km/h 12.0mph /  19.3km/h 76% 0.00in /  0mm 0.0 W/m2
01:25 53.8 °F /  12.1 °C 46.4 °F /  8 °C 30.07in /  1018.2hPa NNE 5.6mph /  9km/h 6.9mph /  11.1km/h 76% 0.00in /  0mm 0.0 W/m2
01:30 53.6 °F /  12 °C 46.2 °F /  7.9 °C 30.07in /  1018.2hPa NNW 7.0mph /  11.3km/h 12.0mph /  19.3km/h 76% 0.00in /  0mm 0.0 W/m2
01:35 53.6 °F /  12 °C 45.9 °F /  7.7 °C 30.07in /  1018.2hPa NNW 6.0mph /  9.7km/h 10.0mph /  16.1km/h 75% 0.00in /  0mm 0.0 W/m2
01:40 53.5 °F /  11.9 °C 45.8 °F /  7.7 °C 30.08in /  1018.5hPa NNW 6.0mph /  9.7km/h 12.0mph /  19.3km/h 75% 0.00in /  0mm 0.0 W/m2
01:45 53.3 °F /  11.8 °C 45.2 °F /  7.3 °C 30.07in /  1018.2hPa North 5.0mph /  8km/h 13.0mph /  20.9km/h 74% 0.00in /  0mm 0.0 W/m2
01:50 53.3 °F /  11.8 °C 44.9 °F /  7.2 °C 30.08in /  1018.5hPa NNW 6.0mph /  9.7km/h 13.0mph /  20.9km/h 73% 0.00in /  0mm 0.0 W/m2
01:55 53.3 °F /  11.8 °C 44.9 °F /  7.2 °C 30.08in /  1018.5hPa NNW 8.0mph /  12.9km/h 16.0mph /  25.7km/h 73% 0.00in /  0mm 0.0 W/m2
02:00 53.1 °F /  11.7 °C 44.3 °F /  6.8 °C 30.08in /  1018.5hPa NNW 8.0mph /  12.9km/h 13.0mph /  20.9km/h 72% 0.00in /  0mm 0.0 W/m2
02:05 52.9 °F /  11.6 °C 43.4 °F /  6.3 °C 30.08in /  1018.5hPa North 8.0mph /  12.9km/h 13.0mph /  20.9km/h 70% 0.00in /  0mm 0.0 W/m2
02:10 52.7 °F /  11.5 °C 42.4 °F /  5.8 °C 30.08in /  1018.5hPa North 9.6mph /  15.4km/h 16.1mph /  25.9km/h 68% 0.00in /  0mm 0.0 W/m2
02:15 52.6 °F /  11.4 °C 42.3 °F /  5.7 °C 30.08in /  1018.5hPa North 5.0mph /  8km/h 10.0mph /  16.1km/h 68% 0.00in /  0mm 0.0 W/m2
02:20 52.4 °F /  11.3 °C 41.8 °F /  5.4 °C 30.08in /  1018.5hPa North 8.8mph /  14.2km/h 14.3mph /  23km/h 67% 0.00in /  0mm 0.0 W/m2
02:25 52.2 °F /  11.2 °C 40.8 °F /  4.9 °C 30.08in /  1018.5hPa NNW 8.0mph /  12.9km/h 14.0mph /  22.5km/h 65% 0.00in /  0mm 0.0 W/m2
02:30 52.1 °F /  11.2 °C 39.5 °F /  4.2 °C 30.08in /  1018.5hPa North 9.0mph /  14.5km/h 19.0mph /  30.6km/h 62% 0.00in /  0mm 0.0 W/m2
02:35 52.1 °F /  11.2 °C 39.5 °F /  4.2 °C 30.07in /  1018.2hPa North 7.0mph /  11.3km/h 14.0mph /  22.5km/h 62% 0.00in /  0mm 0.0 W/m2
02:40 52.0 °F /  11.1 °C 39.0 °F /  3.9 °C 30.07in /  1018.2hPa NNE 7.0mph /  11.3km/h 13.0mph /  20.9km/h 61% 0.00in /  0mm 0.0 W/m2
02:45 51.9 °F /  11.1 °C 38.8 °F /  3.8 °C 30.07in /  1018.2hPa North 6.0mph /  9.7km/h 13.0mph /  20.9km/h 61% 0.00in /  0mm 0.0 W/m2
02:50 51.8 °F /  11 °C 38.8 °F /  3.8 °C 30.07in /  1018.2hPa North 9.0mph /  14.5km/h 14.0mph /  22.5km/h 61% 0.00in /  0mm 0.0 W/m2
02:55 51.7 °F /  10.9 °C 38.6 °F /  3.7 °C 30.08in /  1018.5hPa NNE 7.0mph /  11.3km/h 12.0mph /  19.3km/h 61% 0.00in /  0mm 0.0 W/m2
03:00 51.5 °F /  10.8 °C 38.9 °F /  3.8 °C 30.07in /  1018.2hPa NNE 7.0mph /  11.3km/h 12.0mph /  19.3km/h 62% 0.00in /  0mm 0.0 W/m2
03:05 51.2 °F /  10.7 °C 38.6 °F /  3.7 °C 30.07in /  1018.2hPa NNE 5.1mph /  8.2km/h 10.4mph /  16.7km/h 62% 0.00in /  0mm 0.0 W/m2
03:10 51.1 °F /  10.6 °C 38.5 °F /  3.6 °C 30.08in /  1018.5hPa North 7.0mph /  11.3km/h 13.0mph /  20.9km/h 62% 0.00in /  0mm 0.0 W/m2
03:15 50.9 °F /  10.5 °C 38.7 °F /  3.7 °C 30.08in /  1018.5hPa NNE 2.4mph /  3.9km/h 8.1mph /  13km/h 63% 0.00in /  0mm 0.0 W/m2
03:20 50.8 °F /  10.4 °C 38.6 °F /  3.7 °C 30.07in /  1018.2hPa NNE 5.0mph /  8km/h 10.0mph /  16.1km/h 63% 0.00in /  0mm 0.0 W/m2
03:25 50.5 °F /  10.3 °C 38.8 °F /  3.8 °C 30.07in /  1018.2hPa NNW 7.3mph /  11.7km/h 8.1mph /  13km/h 64% 0.00in /  0mm 0.0 W/m2
03:30 50.4 °F /  10.2 °C 38.7 °F /  3.7 °C 30.08in /  1018.5hPa North 5.0mph /  8km/h 10.0mph /  16.1km/h 64% 0.00in /  0mm 0.0 W/m2
03:35 50.1 °F /  10.1 °C 38.8 °F /  3.8 °C 30.08in /  1018.5hPa North 1.0mph /  1.6km/h 7.0mph /  11.3km/h 65% 0.00in /  0mm 0.0 W/m2
03:40 49.8 °F /  9.9 °C 38.5 °F /  3.6 °C 30.08in /  1018.5hPa North 5.0mph /  8km/h 9.0mph /  14.5km/h 65% 0.00in /  0mm 0.0 W/m2
03:45 49.7 °F /  9.8 °C 38.8 °F /  3.8 °C 30.08in /  1018.5hPa North 1.0mph /  1.6km/h 9.0mph /  14.5km/h 66% 0.00in /  0mm 0.0 W/m2
03:50 49.4 °F /  9.7 °C 38.9 °F /  3.8 °C 30.07in /  1018.2hPa NE 1.8mph /  2.9km/h 2.3mph /  3.7km/h 67% 0.00in /  0mm 0.0 W/m2
03:55 49.1 °F /  9.5 °C 38.6 °F /  3.7 °C 30.07in /  1018.2hPa North 2.0mph /  3.2km/h 6.0mph /  9.7km/h 67% 0.00in /  0mm 0.0 W/m2
04:00 48.9 °F /  9.4 °C 38.8 °F /  3.8 °C 30.07in /  1018.2hPa North 3.0mph /  4.8km/h 6.0mph /  9.7km/h 68% 0.00in /  0mm 0.0 W/m2
04:05 48.6 °F /  9.2 °C 38.9 °F /  3.8 °C 30.07in /  1018.2hPa North 2.0mph /  3.2km/h 5.0mph /  8km/h 69% 0.00in /  0mm 0.0 W/m2
04:10 48.4 °F /  9.1 °C 38.7 °F /  3.7 °C 30.07in /  1018.2hPa NE 1.4mph /  2.3km/h 4.6mph /  7.4km/h 69% 0.00in /  0mm 0.0 W/m2
04:15 48.2 °F /  9 °C 38.9 °F /  3.8 °C 30.08in /  1018.5hPa North 2.0mph /  3.2km/h 5.0mph /  8km/h 70% 0.00in /  0mm 0.0 W/m2
04:20 48.0 °F /  8.9 °C 38.7 °F /  3.7 °C 30.08in /  1018.5hPa North 0.7mph /  1.1km/h 1.2mph /  1.9km/h 70% 0.00in /  0mm 0.0 W/m2
04:25 47.7 °F /  8.7 °C 38.8 °F /  3.8 °C 30.08in /  1018.5hPa Calm     71% 0.00in /  0mm 0.0 W/m2
04:30 47.4 °F /  8.6 °C 38.5 °F /  3.6 °C 30.08in /  1018.5hPa WNW 0.8mph /  1.3km/h 1.2mph /  1.9km/h 71% 0.00in /  0mm 0.0 W/m2
04:35 47.1 °F /  8.4 °C 38.6 °F /  3.7 °C 30.08in /  1018.5hPa Calm   1.0mph /  1.6km/h 72% 0.00in /  0mm 0.0 W/m2
04:40 46.8 °F /  8.2 °C 38.6 °F /  3.7 °C 30.08in /  1018.5hPa Calm     73% 0.00in /  0mm 0.0 W/m2
04:45 46.5 °F /  8.1 °C 38.3 °F /  3.5 °C 30.08in /  1018.5hPa Calm     73% 0.00in /  0mm 0.0 W/m2
04:50 46.1 °F /  7.8 °C 38.3 °F /  3.5 °C 30.08in /  1018.5hPa Calm     74% 0.00in /  0mm 0.0 W/m2
04:55 46.1 °F /  7.8 °C 38.6 °F /  3.7 °C 30.08in /  1018.5hPa Calm     75% 0.00in /  0mm 0.0 W/m2
05:00 45.9 °F /  7.7 °C 38.4 °F /  3.6 °C 30.08in /  1018.5hPa Calm     75% 0.00in /  0mm 0.0 W/m2
05:05 45.5 °F /  7.5 °C 38.4 °F /  3.6 °C 30.08in /  1018.5hPa Calm     76% 0.00in /  0mm 0.0 W/m2
05:10 45.4 °F /  7.4 °C 38.6 °F /  3.7 °C 30.08in /  1018.5hPa Calm     77% 0.00in /  0mm 0.0 W/m2
05:15 45.3 °F /  7.4 °C 38.5 °F /  3.6 °C 30.08in /  1018.5hPa Calm     77% 0.00in /  0mm 0.0 W/m2
05:20 45.0 °F /  7.2 °C 38.2 °F /  3.4 °C 30.08in /  1018.5hPa Calm     77% 0.00in /  0mm 0.0 W/m2
05:25 44.4 °F /  6.9 °C 37.7 °F /  3.2 °C 30.08in /  1018.5hPa Calm     77% 0.00in /  0mm 0.0 W/m2
05:30 44.0 °F /  6.7 °C 37.9 °F /  3.3 °C 30.09in /  1018.8hPa Calm     79% 0.00in /  0mm 0.0 W/m2
05:35 43.6 °F /  6.4 °C 37.5 °F /  3.1 °C 30.09in /  1018.8hPa Calm     79% 0.00in /  0mm 0.0 W/m2
05:40 43.5 °F /  6.4 °C 38.1 °F /  3.4 °C 30.08in /  1018.5hPa Calm     81% 0.00in /  0mm 0.0 W/m2
05:45 43.2 °F /  6.2 °C 38.1 °F /  3.4 °C 30.09in /  1018.8hPa Calm     82% 0.00in /  0mm 0.0 W/m2
05:50 42.8 °F /  6 °C 37.7 °F /  3.2 °C 30.09in /  1018.8hPa Calm     82% 0.00in /  0mm 0.0 W/m2
05:55 42.8 °F /  6 °C 38.3 °F /  3.5 °C 30.09in /  1018.8hPa Calm     84% 0.00in /  0mm 0.0 W/m2
06:00 43.0 °F /  6.1 °C 38.5 °F /  3.6 °C 30.08in /  1018.5hPa Calm     84% 0.00in /  0mm 0.0 W/m2
06:05 43.1 °F /  6.2 °C 38.3 °F /  3.5 °C 30.08in /  1018.5hPa Calm     83% 0.00in /  0mm 0.0 W/m2
06:10 43.0 °F /  6.1 °C 38.5 °F /  3.6 °C 30.09in /  1018.8hPa Calm     84% 0.00in /  0mm 0.0 W/m2
06:15 42.7 °F /  5.9 °C 37.9 °F /  3.3 °C 30.09in /  1018.8hPa Calm     83% 0.00in /  0mm 0.0 W/m2
06:20 42.5 °F /  5.8 °C 38.0 °F /  3.3 °C 30.09in /  1018.8hPa Calm     84% 0.00in /  0mm 0.0 W/m2
06:25 42.2 °F /  5.7 °C 38.0 °F /  3.3 °C 30.09in /  1018.8hPa Calm     85% 0.00in /  0mm 0.0 W/m2
06:30 42.6 °F /  5.9 °C 38.4 °F /  3.6 °C 30.10in /  1019.2hPa Calm     85% 0.00in /  0mm 0.0 W/m2
06:35 43.4 °F /  6.3 °C 38.9 °F /  3.8 °C 30.10in /  1019.2hPa Calm     84% 0.00in /  0mm 0.0 W/m2
06:40 43.3 °F /  6.3 °C 38.2 °F /  3.4 °C 30.10in /  1019.2hPa Calm     82% 0.00in /  0mm 0.0 W/m2
06:45 42.8 °F /  6 °C 38.0 °F /  3.3 °C 30.10in /  1019.2hPa Calm     83% 0.00in /  0mm 0.0 W/m2
06:50 42.3 °F /  5.7 °C 37.8 °F /  3.2 °C 30.11in /  1019.5hPa Calm     84% 0.00in /  0mm 0.0 W/m2
06:55 42.0 °F /  5.6 °C 37.8 °F /  3.2 °C 30.10in /  1019.2hPa Calm     85% 0.00in /  0mm 0.0 W/m2
07:00 41.8 °F /  5.4 °C 37.9 °F /  3.3 °C 30.10in /  1019.2hPa Calm     86% 0.00in /  0mm 0.0 W/m2
07:05 41.5 °F /  5.3 °C 37.6 °F /  3.1 °C 30.10in /  1019.2hPa Calm     86% 0.00in /  0mm 0.0 W/m2
07:10 41.2 °F /  5.1 °C 37.3 °F /  2.9 °C 30.10in /  1019.2hPa Calm     86% 0.00in /  0mm 0.0 W/m2
07:15 41.2 °F /  5.1 °C 37.9 °F /  3.3 °C 30.11in /  1019.5hPa Calm     88% 0.00in /  0mm 0.0 W/m2
07:20 41.0 °F /  5 °C 37.7 °F /  3.2 °C 30.11in /  1019.5hPa Calm     88% 0.00in /  0mm 0.0 W/m2
07:25 40.8 °F /  4.9 °C 37.5 °F /  3.1 °C 30.11in /  1019.5hPa Calm     88% 0.00in /  0mm 0.0 W/m2
07:30 40.4 °F /  4.7 °C 37.1 °F /  2.8 °C 30.11in /  1019.5hPa Calm     88% 0.00in /  0mm 0.0 W/m2
07:35 40.2 °F /  4.6 °C 37.2 °F /  2.9 °C 30.12in /  1019.9hPa Calm     89% 0.00in /  0mm 0.0 W/m2
07:40 40.0 °F /  4.4 °C 37.0 °F /  2.8 °C 30.12in /  1019.9hPa Calm     89% 0.00in /  0mm 0.0 W/m2
07:45 40.4 °F /  4.7 °C 38.0 °F /  3.3 °C 30.11in /  1019.5hPa Calm     91% 0.00in /  0mm 0.0 W/m2
07:50 40.5 °F /  4.7 °C 37.8 °F /  3.2 °C 30.12in /  1019.9hPa Calm     90% 0.00in /  0mm 0.0 W/m2
07:55 40.5 °F /  4.7 °C 37.8 °F /  3.2 °C 30.12in /  1019.9hPa Calm     90% 0.00in /  0mm 0.0 W/m2
08:00 40.9 °F /  4.9 °C 38.2 °F /  3.4 °C 30.12in /  1019.9hPa Calm     90% 0.00in /  0mm 0.0 W/m2
08:05 42.2 °F /  5.7 °C 39.8 °F /  4.3 °C 30.12in /  1019.9hPa Calm     91% 0.00in /  0mm 0.0 W/m2
08:10 43.4 °F /  6.3 °C 40.9 °F /  4.9 °C 30.13in /  1020.2hPa Calm     91% 0.00in /  0mm 0.0 W/m2
08:15 44.4 °F /  6.9 °C 41.7 °F /  5.4 °C 30.13in /  1020.2hPa Calm     90% 0.00in /  0mm 0.0 W/m2
08:20 44.6 °F /  7 °C 41.3 °F /  5.2 °C 30.13in /  1020.2hPa Calm     88% 0.00in /  0mm 0.0 W/m2
08:25 45.1 °F /  7.3 °C 41.5 °F /  5.3 °C 30.13in /  1020.2hPa Calm     87% 0.00in /  0mm 0.0 W/m2
08:30 45.3 °F /  7.4 °C 41.1 °F /  5.1 °C 30.13in /  1020.2hPa NW 0.4mph /  0.6km/h 1.1mph /  1.8km/h 85% 0.00in /  0mm 0.0 W/m2
08:35 45.8 °F /  7.7 °C 40.9 °F /  4.9 °C 30.13in /  1020.2hPa Calm   2.0mph /  3.2km/h 83% 0.00in /  0mm 0.0 W/m2
08:40 46.6 °F /  8.1 °C 41.4 °F /  5.2 °C 30.13in /  1020.2hPa NNW 0.1mph /  0.2km/h 2.2mph /  3.5km/h 82% 0.00in /  0mm 0.0 W/m2
08:45 47.3 °F /  8.5 °C 41.1 °F /  5.1 °C 30.13in /  1020.2hPa NNW 2.0mph /  3.2km/h 5.0mph /  8km/h 79% 0.00in /  0mm 0.0 W/m2
08:50 48.0 °F /  8.9 °C 41.1 °F /  5.1 °C 30.13in /  1020.2hPa NNE 2.1mph /  3.4km/h 6.9mph /  11.1km/h 77% 0.00in /  0mm 0.0 W/m2
08:55 48.7 °F /  9.3 °C 41.1 °F /  5.1 °C 30.13in /  1020.2hPa North 3.0mph /  4.8km/h 10.0mph /  16.1km/h 75% 0.00in /  0mm 0.0 W/m2
09:00 49.3 °F /  9.6 °C 41.0 °F /  5 °C 30.14in /  1020.5hPa NE 2.4mph /  3.9km/h 5.8mph /  9.3km/h 73% 0.00in /  0mm 0.0 W/m2
09:05 49.9 °F /  9.9 °C 40.5 °F /  4.7 °C 30.14in /  1020.5hPa North 5.0mph /  8km/h 10.0mph /  16.1km/h 70% 0.00in /  0mm 0.0 W/m2
09:10 50.5 °F /  10.3 °C 41.1 °F /  5.1 °C 30.14in /  1020.5hPa NW 2.5mph /  4km/h 6.9mph /  11.1km/h 70% 0.00in /  0mm 0.0 W/m2
09:15 50.9 °F /  10.5 °C 41.1 °F /  5.1 °C 30.14in /  1020.5hPa NNE 3.0mph /  4.8km/h 10.0mph /  16.1km/h 69% 0.00in /  0mm 0.0 W/m2
09:20 51.3 °F /  10.7 °C 40.7 °F /  4.8 °C 30.14in /  1020.5hPa NNW 6.2mph /  10km/h 10.4mph /  16.7km/h 67% 0.00in /  0mm 0.0 W/m2
09:25 51.9 °F /  11.1 °C 40.9 °F /  4.9 °C 30.14in /  1020.5hPa NNE 6.0mph /  9.7km/h 9.0mph /  14.5km/h 66% 0.00in /  0mm 0.0 W/m2
09:30 52.2 °F /  11.2 °C 40.4 °F /  4.7 °C 30.14in /  1020.5hPa NNE 6.0mph /  9.7km/h 12.0mph /  19.3km/h 64% 0.00in /  0mm 0.0 W/m2
09:35 52.5 °F /  11.4 °C 39.8 °F /  4.3 °C 30.14in /  1020.5hPa NNE 7.0mph /  11.3km/h 12.0mph /  19.3km/h 62% 0.00in /  0mm 0.0 W/m2
09:40 53.2 °F /  11.8 °C 41.0 °F /  5 °C 30.14in /  1020.5hPa NNE 3.0mph /  4.8km/h 8.0mph /  12.9km/h 63% 0.00in /  0mm 0.0 W/m2
09:45 54.1 °F /  12.3 °C 41.0 °F /  5 °C 30.14in /  1020.5hPa NNE 6.0mph /  9.7km/h 12.0mph /  19.3km/h 61% 0.00in /  0mm 4.9 W/m2
09:50 54.1 °F /  12.3 °C 40.1 °F /  4.5 °C 30.14in /  1020.5hPa WNW 6.4mph /  10.3km/h 10.4mph /  16.7km/h 59% 0.00in /  0mm 12.2 W/m2
09:55 54.6 °F /  12.6 °C 39.7 °F /  4.3 °C 30.14in /  1020.5hPa NE 7.0mph /  11.3km/h 13.0mph /  20.9km/h 57% 0.00in /  0mm 24.9 W/m2
10:00 55.0 °F /  12.8 °C 40.0 °F /  4.4 °C 30.14in /  1020.5hPa North 8.0mph /  12.9km/h 10.0mph /  16.1km/h 57% 0.00in /  0mm 24.9 W/m2
10:05 55.1 °F /  12.8 °C 38.7 °F /  3.7 °C 30.14in /  1020.5hPa North 7.0mph /  11.3km/h 13.0mph /  20.9km/h 54% 0.00in /  0mm 12.2 W/m2
10:10 55.2 °F /  12.9 °C 38.4 °F /  3.6 °C 30.14in /  1020.5hPa North 7.0mph /  11.3km/h 13.0mph /  20.9km/h 53% 0.00in /  0mm 4.9 W/m2
10:15 55.8 °F /  13.2 °C 37.5 °F /  3.1 °C 30.14in /  1020.5hPa NNE 8.0mph /  12.9km/h 13.0mph /  20.9km/h 50% 0.00in /  0mm 4.9 W/m2
10:20 56.4 °F /  13.6 °C 37.9 °F /  3.3 °C 30.14in /  1020.5hPa North 7.0mph /  11.3km/h 12.0mph /  19.3km/h 50% 0.00in /  0mm 0.0 W/m2
10:25 56.5 °F /  13.6 °C 38.1 °F /  3.4 °C 30.14in /  1020.5hPa North 7.0mph /  11.3km/h 13.0mph /  20.9km/h 50% 0.00in /  0mm 384.4 W/m2
10:30 56.7 °F /  13.7 °C 38.3 °F /  3.5 °C 30.14in /  1020.5hPa NE 2.0mph /  3.2km/h 12.0mph /  19.3km/h 50% 0.00in /  0mm 405.3 W/m2
10:35 57.2 °F /  14 °C 37.7 °F /  3.2 °C 30.14in /  1020.5hPa NNW 6.6mph /  10.6km/h 8.1mph /  13km/h 48% 0.00in /  0mm 413.5 W/m2
10:40 57.0 °F /  13.9 °C 37.5 °F /  3.1 °C 30.14in /  1020.5hPa NE 7.0mph /  11.3km/h 13.0mph /  20.9km/h 48% 0.00in /  0mm 413.5 W/m2
10:45 57.7 °F /  14.3 °C 38.7 °F /  3.7 °C 30.14in /  1020.5hPa NNE 6.0mph /  9.7km/h 10.0mph /  16.1km/h 49% 0.00in /  0mm 434.4 W/m2
10:50 57.8 °F /  14.3 °C 37.7 °F /  3.2 °C 30.15in /  1020.9hPa North 6.0mph /  9.7km/h 12.0mph /  19.3km/h 47% 0.00in /  0mm 441.7 W/m2
10:55 57.8 °F /  14.3 °C 37.1 °F /  2.8 °C 30.15in /  1020.9hPa North 3.0mph /  4.8km/h 10.0mph /  16.1km/h 46% 0.00in /  0mm 443.5 W/m2
11:00 58.0 °F /  14.4 °C 36.8 °F /  2.7 °C 30.15in /  1020.9hPa North 7.0mph /  11.3km/h 13.0mph /  20.9km/h 45% 0.00in /  0mm 443.5 W/m2
11:05 59.2 °F /  15.1 °C 37.3 °F /  2.9 °C 30.15in /  1020.9hPa WNW 7.4mph /  11.9km/h 9.2mph /  14.8km/h 44% 0.00in /  0mm 441.7 W/m2
11:10 59.1 °F /  15.1 °C 36.6 °F /  2.6 °C 30.15in /  1020.9hPa North 6.0mph /  9.7km/h 14.0mph /  22.5km/h 43% 0.00in /  0mm 450.8 W/m2
11:15 59.6 °F /  15.3 °C 37.6 °F /  3.1 °C 30.14in /  1020.5hPa NNW 5.0mph /  8km/h 9.0mph /  14.5km/h 44% 0.00in /  0mm 459.9 W/m2
11:20 59.9 °F /  15.5 °C 37.3 °F /  2.9 °C 30.15in /  1020.9hPa NNW 7.0mph /  11.3km/h 12.0mph /  19.3km/h 43% 0.00in /  0mm 459.9 W/m2
11:25 60.1 °F /  15.6 °C 36.3 °F /  2.4 °C 30.15in /  1020.9hPa NNE 9.0mph /  14.5km/h 13.0mph /  20.9km/h 41% 0.00in /  0mm 457.2 W/m2
11:30 60.0 °F /  15.6 °C 37.4 °F /  3 °C 30.14in /  1020.5hPa NNE 3.0mph /  4.8km/h 9.0mph /  14.5km/h 43% 0.00in /  0mm 461.7 W/m2
11:35 60.3 °F /  15.7 °C 37.1 °F /  2.8 °C 30.14in /  1020.5hPa North 5.0mph /  8km/h 14.0mph /  22.5km/h 42% 0.00in /  0mm 461.7 W/m2
11:40 60.5 °F /  15.8 °C 37.8 °F /  3.2 °C 30.14in /  1020.5hPa North 5.0mph /  8km/h 12.0mph /  19.3km/h 43% 0.00in /  0mm 470.8 W/m2
11:45 60.6 °F /  15.9 °C 37.3 °F /  2.9 °C 30.14in /  1020.5hPa North 6.0mph /  9.7km/h 10.0mph /  16.1km/h 42% 0.00in /  0mm 469.9 W/m2
11:50 60.5 °F /  15.8 °C 37.3 °F /  2.9 °C 30.14in /  1020.5hPa NE 7.0mph /  11.3km/h 12.0mph /  19.3km/h 42% 0.00in /  0mm 469.0 W/m2
11:55 60.8 °F /  16 °C 37.5 °F /  3.1 °C 30.14in /  1020.5hPa NE 5.0mph /  8km/h 10.0mph /  16.1km/h 42% 0.00in /  0mm 469.0 W/m2
12:00 60.9 °F /  16.1 °C 36.4 °F /  2.4 °C 30.13in /  1020.2hPa NNE 1.0mph /  1.6km/h 12.0mph /  19.3km/h 40% 0.00in /  0mm 479.0 W/m2
12:05 60.7 °F /  15.9 °C 36.8 °F /  2.7 °C 30.14in /  1020.5hPa NNE 5.0mph /  8km/h 12.0mph /  19.3km/h 41% 0.00in /  0mm 477.2 W/m2
12:10 61.1 °F /  16.2 °C 35.9 °F /  2.2 °C 30.14in /  1020.5hPa WNW 7.0mph /  11.3km/h 10.4mph /  16.7km/h 39% 0.00in /  0mm 478.1 W/m2
12:15 61.4 °F /  16.3 °C 36.2 °F /  2.3 °C 30.14in /  1020.5hPa NNW 6.0mph /  9.7km/h 12.0mph /  19.3km/h 39% 0.00in /  0mm 480.8 W/m2
12:20 61.7 °F /  16.5 °C 37.1 °F /  2.8 °C 30.14in /  1020.5hPa NE 4.2mph /  6.8km/h 5.8mph /  9.3km/h 40% 0.00in /  0mm 480.8 W/m2
12:25 62.1 °F /  16.7 °C 36.2 °F /  2.3 °C 30.14in /  1020.5hPa NE 10.0mph /  16.1km/h 15.0mph /  24.1km/h 38% 0.00in /  0mm 478.1 W/m2
12:30 61.8 °F /  16.6 °C 37.2 °F /  2.9 °C 30.13in /  1020.2hPa NNE 2.0mph /  3.2km/h 13.0mph /  20.9km/h 40% 0.00in /  0mm 477.2 W/m2
12:35 62.5 °F /  16.9 °C 37.9 °F /  3.3 °C 30.13in /  1020.2hPa NNW 2.0mph /  3.2km/h 9.0mph /  14.5km/h 40% 0.00in /  0mm 487.2 W/m2
12:40 62.9 °F /  17.2 °C 36.9 °F /  2.7 °C 30.13in /  1020.2hPa NW 6.0mph /  9.7km/h 9.0mph /  14.5km/h 38% 0.00in /  0mm 487.2 W/m2
12:45 63.1 °F /  17.3 °C 37.7 °F /  3.2 °C 30.13in /  1020.2hPa NNE 5.0mph /  8km/h 13.0mph /  20.9km/h 39% 0.00in /  0mm 485.4 W/m2
12:50 63.1 °F /  17.3 °C 37.7 °F /  3.2 °C 30.13in /  1020.2hPa ENE 2.7mph /  4.3km/h 5.8mph /  9.3km/h 39% 0.00in /  0mm 486.3 W/m2
12:55 63.7 °F /  17.6 °C 38.2 °F /  3.4 °C 30.12in /  1019.9hPa NW 3.0mph /  4.8km/h 7.0mph /  11.3km/h 39% 0.00in /  0mm 490.9 W/m2
13:00 63.8 °F /  17.7 °C 37.7 °F /  3.2 °C 30.12in /  1019.9hPa NE 3.7mph /  6km/h 11.5mph /  18.5km/h 38% 0.00in /  0mm 489.0 W/m2
13:05 64.6 °F /  18.1 °C 38.4 °F /  3.6 °C 30.12in /  1019.9hPa NNE 2.0mph /  3.2km/h 7.0mph /  11.3km/h 38% 0.00in /  0mm 489.0 W/m2
13:10 64.4 °F /  18 °C 37.5 °F /  3.1 °C 30.12in /  1019.9hPa NE 3.7mph /  6km/h 5.8mph /  9.3km/h 37% 0.00in /  0mm 490.9 W/m2
13:15 64.9 °F /  18.3 °C 37.3 °F /  2.9 °C 30.11in /  1019.5hPa NNE 3.0mph /  4.8km/h 8.0mph /  12.9km/h 36% 0.00in /  0mm 487.2 W/m2
13:20 64.8 °F /  18.2 °C 37.2 °F /  2.9 °C 30.11in /  1019.5hPa SSW 4.5mph /  7.2km/h 5.8mph /  9.3km/h 36% 0.00in /  0mm 486.3 W/m2
13:25 65.1 °F /  18.4 °C 38.1 °F /  3.4 °C 30.11in /  1019.5hPa West 2.0mph /  3.2km/h 7.0mph /  11.3km/h 37% 0.00in /  0mm 485.4 W/m2
13:30 65.0 °F /  18.3 °C 36.7 °F /  2.6 °C 30.11in /  1019.5hPa ENE 1.7mph /  2.7km/h 5.8mph /  9.3km/h 35% 0.00in /  0mm 487.2 W/m2
13:35 65.4 °F /  18.6 °C 36.3 °F /  2.4 °C 30.10in /  1019.2hPa NNW 2.0mph /  3.2km/h 10.0mph /  16.1km/h 34% 0.00in /  0mm 487.2 W/m2
13:40 65.5 °F /  18.6 °C 36.4 °F /  2.4 °C 30.10in /  1019.2hPa NW 2.9mph /  4.7km/h 5.5mph /  8.9km/h 34% 0.00in /  0mm 485.4 W/m2
13:45 65.2 °F /  18.4 °C 36.1 °F /  2.3 °C 30.09in /  1018.8hPa WNW 5.0mph /  8km/h 10.0mph /  16.1km/h 34% 0.00in /  0mm 481.8 W/m2
13:50 66.1 °F /  18.9 °C 37.6 °F /  3.1 °C 30.09in /  1018.8hPa WNW 2.0mph /  3.2km/h 8.0mph /  12.9km/h 35% 0.00in /  0mm 487.2 W/m2
13:55 66.6 °F /  19.2 °C 37.3 °F /  2.9 °C 30.10in /  1019.2hPa NNW 5.0mph /  8km/h 8.0mph /  12.9km/h 34% 0.00in /  0mm 487.2 W/m2
14:00 66.6 °F /  19.2 °C 38.1 °F /  3.4 °C 30.10in /  1019.2hPa North 5.0mph /  8km/h 8.0mph /  12.9km/h 35% 0.00in /  0mm 488.1 W/m2
14:05 66.4 °F /  19.1 °C 37.2 °F /  2.9 °C 30.09in /  1018.8hPa NNW 2.0mph /  3.2km/h 8.0mph /  12.9km/h 34% 0.00in /  0mm 489.0 W/m2
14:10 67.1 °F /  19.5 °C 38.5 °F /  3.6 °C 30.09in /  1018.8hPa WNW 5.0mph /  8km/h 8.0mph /  12.9km/h 35% 0.00in /  0mm 488.1 W/m2
14:15 67.0 °F /  19.4 °C 36.9 °F /  2.7 °C 30.09in /  1018.8hPa NW 6.0mph /  9.7km/h 8.0mph /  12.9km/h 33% 0.00in /  0mm 484.5 W/m2
14:20 67.3 °F /  19.6 °C 37.2 °F /  2.9 °C 30.09in /  1018.8hPa NW 1.0mph /  1.6km/h 8.0mph /  12.9km/h 33% 0.00in /  0mm 484.5 W/m2
14:25 67.7 °F /  19.8 °C 38.3 °F /  3.5 °C 30.09in /  1018.8hPa WNW 6.0mph /  9.7km/h 8.0mph /  12.9km/h 34% 0.00in /  0mm 488.1 W/m2
14:30 67.6 °F /  19.8 °C 37.5 °F /  3.1 °C 30.08in /  1018.5hPa WNW 3.0mph /  4.8km/h 7.0mph /  11.3km/h 33% 0.00in /  0mm 489.0 W/m2
14:35 67.4 °F /  19.7 °C 37.3 °F /  2.9 °C 30.08in /  1018.5hPa WNW 3.0mph /  4.8km/h 7.0mph /  11.3km/h 33% 0.00in /  0mm 488.1 W/m2
14:40 67.0 °F /  19.4 °C 36.9 °F /  2.7 °C 30.08in /  1018.5hPa WNW 2.0mph /  3.2km/h 6.0mph /  9.7km/h 33% 0.00in /  0mm 488.1 W/m2
14:45 67.3 °F /  19.6 °C 38.0 °F /  3.3 °C 30.08in /  1018.5hPa WNW 5.0mph /  8km/h 9.0mph /  14.5km/h 34% 0.00in /  0mm 467.2 W/m2
14:50 67.8 °F /  19.9 °C 36.8 °F /  2.7 °C 30.08in /  1018.5hPa WNW 2.0mph /  3.2km/h 7.0mph /  11.3km/h 32% 0.00in /  0mm 486.3 W/m2
14:55 68.4 °F /  20.2 °C 36.6 °F /  2.6 °C 30.08in /  1018.5hPa SW 2.4mph /  3.9km/h 4.6mph /  7.4km/h 31% 0.00in /  0mm 488.1 W/m2
15:00 69.1 °F /  20.6 °C 36.3 °F /  2.4 °C 30.07in /  1018.2hPa WSW 3.0mph /  4.8km/h 7.0mph /  11.3km/h 30% 0.00in /  0mm 484.5 W/m2
15:05 69.0 °F /  20.6 °C 37.1 °F /  2.8 °C 30.07in /  1018.2hPa West 3.0mph /  4.8km/h 7.0mph /  11.3km/h 31% 0.00in /  0mm 482.7 W/m2
15:10 69.4 °F /  20.8 °C 37.4 °F /  3 °C 30.07in /  1018.2hPa West 2.0mph /  3.2km/h 6.0mph /  9.7km/h 31% 0.00in /  0mm 488.1 W/m2
15:15 69.2 °F /  20.7 °C 37.2 °F /  2.9 °C 30.07in /  1018.2hPa North 3.0mph /  4.8km/h 6.0mph /  9.7km/h 31% 0.00in /  0mm 488.1 W/m2
15:20 69.3 °F /  20.7 °C 37.3 °F /  2.9 °C 30.07in /  1018.2hPa WNW 2.0mph /  3.2km/h 7.0mph /  11.3km/h 31% 0.00in /  0mm 488.1 W/m2
15:25 69.7 °F /  20.9 °C 37.7 °F /  3.2 °C 30.06in /  1017.8hPa WSW 1.0mph /  1.6km/h 5.0mph /  8km/h 31% 0.00in /  0mm 488.1 W/m2
15:30 70.6 °F /  21.4 °C 37.6 °F /  3.1 °C 30.06in /  1017.8hPa WSW 6.0mph /  9.7km/h 9.0mph /  14.5km/h 30% 0.00in /  0mm 482.7 W/m2
15:35 69.5 °F /  20.8 °C 37.5 °F /  3.1 °C 30.06in /  1017.8hPa NNW 7.0mph /  11.3km/h 9.0mph /  14.5km/h 31% 0.00in /  0mm 487.2 W/m2
15:40 69.4 °F /  20.8 °C 37.4 °F /  3 °C 30.06in /  1017.8hPa North 3.0mph /  4.8km/h 9.0mph /  14.5km/h 31% 0.00in /  0mm 487.2 W/m2
15:45 69.5 °F /  20.8 °C 38.3 °F /  3.5 °C 30.06in /  1017.8hPa North 6.0mph /  9.7km/h 8.0mph /  12.9km/h 32% 0.00in /  0mm 482.7 W/m2
15:50 69.3 °F /  20.7 °C 40.5 °F /  4.7 °C 30.05in /  1017.5hPa NW 4.8mph /  7.7km/h 13.2mph /  21.2km/h 35% 0.00in /  0mm 484.5 W/m2
15:55 69.5 °F /  20.8 °C 39.9 °F /  4.4 °C 30.05in /  1017.5hPa NNW 1.0mph /  1.6km/h 13.0mph /  20.9km/h 34% 0.00in /  0mm 488.1 W/m2
16:00 69.2 °F /  20.7 °C 39.7 °F /  4.3 °C 30.05in /  1017.5hPa WNW 6.0mph /  9.7km/h 9.0mph /  14.5km/h 34% 0.00in /  0mm 486.3 W/m2
16:05 69.7 °F /  20.9 °C 39.3 °F /  4.1 °C 30.05in /  1017.5hPa West 7.0mph /  11.3km/h 10.0mph /  16.1km/h 33% 0.00in /  0mm 467.2 W/m2
16:10 69.4 °F /  20.8 °C 40.5 °F /  4.7 °C 30.05in /  1017.5hPa WNW 5.7mph /  9.2km/h 9.2mph /  14.8km/h 35% 0.00in /  0mm 472.7 W/m2
16:15 69.7 °F /  20.9 °C 40.0 °F /  4.4 °C 30.05in /  1017.5hPa WNW 8.0mph /  12.9km/h 10.0mph /  16.1km/h 34% 0.00in /  0mm 472.7 W/m2
16:20 69.3 °F /  20.7 °C 38.2 °F /  3.4 °C 30.05in /  1017.5hPa West 6.0mph /  9.7km/h 12.0mph /  19.3km/h 32% 0.00in /  0mm 467.2 W/m2
16:25 69.6 °F /  20.9 °C 39.2 °F /  4 °C 30.05in /  1017.5hPa West 8.0mph /  12.9km/h 12.0mph /  19.3km/h 33% 0.00in /  0mm 472.7 W/m2
16:30 69.7 °F /  20.9 °C 39.3 °F /  4.1 °C 30.05in /  1017.5hPa WNW 7.0mph /  11.3km/h 12.0mph /  19.3km/h 33% 0.00in /  0mm 472.7 W/m2
16:35 69.3 °F /  20.7 °C 41.9 °F /  5.5 °C 30.05in /  1017.5hPa WNW 8.0mph /  12.9km/h 12.0mph /  19.3km/h 37% 0.00in /  0mm 463.6 W/m2
16:40 69.0 °F /  20.6 °C 42.3 °F /  5.7 °C 30.05in /  1017.5hPa West 8.0mph /  12.9km/h 13.0mph /  20.9km/h 38% 0.00in /  0mm 460.8 W/m2
16:45 68.3 °F /  20.2 °C 42.4 °F /  5.8 °C 30.05in /  1017.5hPa West 9.0mph /  14.5km/h 14.0mph /  22.5km/h 39% 0.00in /  0mm 460.8 W/m2
16:50 67.7 °F /  19.8 °C 41.8 °F /  5.4 °C 30.05in /  1017.5hPa West 12.0mph /  19.3km/h 15.0mph /  24.1km/h 39% 0.00in /  0mm 455.4 W/m2
16:55 67.3 °F /  19.6 °C 43.4 °F /  6.3 °C 30.05in /  1017.5hPa NW 11.1mph /  17.9km/h 12.7mph /  20.4km/h 42% 0.00in /  0mm 451.7 W/m2
17:00 67.4 °F /  19.7 °C 44.1 °F /  6.7 °C 30.05in /  1017.5hPa NW 5.2mph /  8.4km/h 10.4mph /  16.7km/h 43% 0.00in /  0mm 451.7 W/m2
17:05 67.6 °F /  19.8 °C 44.9 °F /  7.2 °C 30.05in /  1017.5hPa WNW 8.0mph /  12.9km/h 11.5mph /  18.5km/h 44% 0.00in /  0mm 446.3 W/m2
17:10 67.2 °F /  19.6 °C 45.1 °F /  7.3 °C 30.05in /  1017.5hPa West 8.9mph /  14.3km/h 11.5mph /  18.5km/h 45% 0.00in /  0mm 446.3 W/m2
17:15 66.9 °F /  19.4 °C 46.0 °F /  7.8 °C 30.05in /  1017.5hPa West 9.5mph /  15.3km/h 12.7mph /  20.4km/h 47% 0.00in /  0mm 438.1 W/m2
17:20 66.6 °F /  19.2 °C 46.3 °F /  7.9 °C 30.05in /  1017.5hPa West 7.8mph /  12.6km/h 10.4mph /  16.7km/h 48% 0.00in /  0mm 448.1 W/m2
17:25 66.4 °F /  19.1 °C 47.2 °F /  8.4 °C 30.06in /  1017.8hPa SW 9.4mph /  15.1km/h 12.7mph /  20.4km/h 50% 0.00in /  0mm 425.3 W/m2
17:30 66.4 °F /  19.1 °C 48.2 °F /  9 °C 30.06in /  1017.8hPa WSW 9.0mph /  14.5km/h 12.7mph /  20.4km/h 52% 0.00in /  0mm 411.7 W/m2
17:35 65.9 °F /  18.8 °C 47.8 °F /  8.8 °C 30.06in /  1017.8hPa West 11.7mph /  18.8km/h 13.2mph /  21.2km/h 52% 0.00in /  0mm 389.8 W/m2
17:40 65.0 °F /  18.3 °C 47.9 °F /  8.8 °C 30.06in /  1017.8hPa West 10.4mph /  16.7km/h 12.7mph /  20.4km/h 54% 0.00in /  0mm 115.0 W/m2
17:45 64.7 °F /  18.2 °C 48.6 °F /  9.2 °C 30.06in /  1017.8hPa WNW 10.7mph /  17.2km/h 12.7mph /  20.4km/h 56% 0.00in /  0mm 101.4 W/m2
17:50 64.5 °F /  18.1 °C 48.9 °F /  9.4 °C 30.06in /  1017.8hPa WNW 8.7mph /  14km/h 13.2mph /  21.2km/h 57% 0.00in /  0mm 101.4 W/m2
17:55 64.6 °F /  18.1 °C 49.0 °F /  9.4 °C 30.06in /  1017.8hPa West 7.6mph /  12.2km/h 11.0mph /  17.7km/h 57% 0.00in /  0mm 69.5 W/m2
18:00 65.1 °F /  18.4 °C 49.0 °F /  9.4 °C 30.06in /  1017.8hPa West 7.8mph /  12.6km/h 11.0mph /  17.7km/h 56% 0.00in /  0mm 45.9 W/m2
18:05 65.0 °F /  18.3 °C 49.4 °F /  9.7 °C 30.07in /  1018.2hPa WNW 7.8mph /  12.6km/h 9.2mph /  14.8km/h 57% 0.00in /  0mm 33.1 W/m2
18:10 64.7 °F /  18.2 °C 49.1 °F /  9.5 °C 30.06in /  1017.8hPa WNW 8.8mph /  14.2km/h 10.4mph /  16.7km/h 57% 0.00in /  0mm 25.8 W/m2
18:15 64.6 °F /  18.1 °C 49.9 °F /  9.9 °C 30.06in /  1017.8hPa West 8.9mph /  14.3km/h 8.9mph /  14.3km/h 59% 0.00in /  0mm 25.8 W/m2
18:21 64.5 °F /  18.1 °C 49.8 °F /  9.9 °C 30.06in /  1017.8hPa NW 8.4mph /  13.5km/h 11.5mph /  18.5km/h 59% 0.00in /  0mm 33.1 W/m2
18:26 63.9 °F /  17.7 °C 49.7 °F /  9.8 °C 30.07in /  1018.2hPa West 9.0mph /  14.5km/h 9.2mph /  14.8km/h 60% 0.00in /  0mm 1.3 W/m2
18:31 63.4 °F /  17.4 °C 49.7 °F /  9.8 °C 30.07in /  1018.2hPa West 7.3mph /  11.7km/h 10.4mph /  16.7km/h 61% 0.00in /  0mm 0.0 W/m2
18:36 63.2 °F /  17.3 °C 50.0 °F /  10 °C 30.07in /  1018.2hPa West 4.5mph /  7.2km/h 5.8mph /  9.3km/h 62% 0.00in /  0mm 0.0 W/m2
18:41 63.5 °F /  17.5 °C 49.8 °F /  9.9 °C 30.07in /  1018.2hPa WNW 5.4mph /  8.7km/h 8.1mph /  13km/h 61% 0.00in /  0mm 0.0 W/m2
18:46 63.0 °F /  17.2 °C 49.3 °F /  9.6 °C 30.07in /  1018.2hPa WSW 6.9mph /  11.1km/h 10.4mph /  16.7km/h 61% 0.00in /  0mm 0.0 W/m2
18:51 62.8 °F /  17.1 °C 48.7 °F /  9.3 °C 30.08in /  1018.5hPa WNW 6.7mph /  10.8km/h 10.4mph /  16.7km/h 60% 0.00in /  0mm 0.0 W/m2
18:56 62.5 °F /  16.9 °C 48.4 °F /  9.1 °C 30.08in /  1018.5hPa WNW 6.6mph /  10.6km/h 11.5mph /  18.5km/h 60% 0.00in /  0mm 0.0 W/m2
19:01 62.3 °F /  16.8 °C 48.7 °F /  9.3 °C 30.08in /  1018.5hPa NW 5.6mph /  9km/h 8.1mph /  13km/h 61% 0.00in /  0mm 0.0 W/m2
19:06 62.1 °F /  16.7 °C 48.0 °F /  8.9 °C 30.07in /  1018.2hPa WNW 6.3mph /  10.1km/h 9.2mph /  14.8km/h 60% 0.00in /  0mm 0.0 W/m2
19:11 61.5 °F /  16.4 °C 47.5 °F /  8.6 °C 30.07in /  1018.2hPa WNW 8.6mph /  13.8km/h 11.5mph /  18.5km/h 60% 0.00in /  0mm 0.0 W/m2
19:16 60.9 °F /  16.1 °C 46.9 °F /  8.3 °C 30.07in /  1018.2hPa WNW 5.5mph /  8.9km/h 10.4mph /  16.7km/h 60% 0.00in /  0mm 0.0 W/m2
19:21 60.3 °F /  15.7 °C 46.8 °F /  8.2 °C 30.08in /  1018.5hPa WNW 5.2mph /  8.4km/h 9.2mph /  14.8km/h 61% 0.00in /  0mm 0.0 W/m2
19:26 59.7 °F /  15.4 °C 46.7 °F /  8.2 °C 30.08in /  1018.5hPa WNW 6.1mph /  9.8km/h 6.9mph /  11.1km/h 62% 0.00in /  0mm 0.0 W/m2
19:31 59.3 °F /  15.2 °C 46.7 °F /  8.2 °C 30.08in /  1018.5hPa WNW 3.3mph /  5.3km/h 5.5mph /  8.9km/h 63% 0.00in /  0mm 0.0 W/m2
19:36 58.9 °F /  14.9 °C 46.7 °F /  8.2 °C 30.08in /  1018.5hPa West 2.8mph /  4.5km/h 4.6mph /  7.4km/h 64% 0.00in /  0mm 0.0 W/m2
19:41 58.5 °F /  14.7 °C 46.8 °F /  8.2 °C 30.08in /  1018.5hPa WNW 5.4mph /  8.7km/h 5.8mph /  9.3km/h 65% 0.00in /  0mm 0.0 W/m2
19:46 58.3 °F /  14.6 °C 47.0 °F /  8.3 °C 30.08in /  1018.5hPa WNW 3.5mph /  5.6km/h 6.9mph /  11.1km/h 66% 0.00in /  0mm 0.0 W/m2
19:52 58.1 °F /  14.5 °C 46.8 °F /  8.2 °C 30.08in /  1018.5hPa WNW 3.4mph /  5.5km/h 5.8mph /  9.3km/h 66% 0.00in /  0mm 0.0 W/m2
19:57 57.8 °F /  14.3 °C 46.9 °F /  8.3 °C 30.08in /  1018.5hPa NW 2.3mph /  3.7km/h 3.5mph /  5.6km/h 67% 0.00in /  0mm 0.0 W/m2
20:02 57.7 °F /  14.3 °C 47.2 °F /  8.4 °C 30.08in /  1018.5hPa NW 4.3mph /  6.9km/h 5.8mph /  9.3km/h 68% 0.00in /  0mm 0.0 W/m2
20:07 57.6 °F /  14.2 °C 47.1 °F /  8.4 °C 30.09in /  1018.8hPa WNW 2.7mph /  4.3km/h 3.5mph /  5.6km/h 68% 0.00in /  0mm 0.0 W/m2
20:12 57.5 °F /  14.2 °C 47.4 °F /  8.6 °C 30.08in /  1018.5hPa WNW 3.6mph /  5.8km/h 4.6mph /  7.4km/h 69% 0.00in /  0mm 0.0 W/m2
20:17 57.3 °F /  14.1 °C 47.2 °F /  8.4 °C 30.08in /  1018.5hPa WNW 3.4mph /  5.5km/h 5.8mph /  9.3km/h 69% 0.00in /  0mm 0.0 W/m2
20:22 57.0 °F /  13.9 °C 46.9 °F /  8.3 °C 30.09in /  1018.8hPa NW 5.7mph /  9.2km/h 8.8mph /  14.2km/h 69% 0.00in /  0mm 0.0 W/m2
20:27 56.9 °F /  13.8 °C 46.8 °F /  8.2 °C 30.08in /  1018.5hPa NNW 5.6mph /  9km/h 8.1mph /  13km/h 69% 0.00in /  0mm 0.0 W/m2
20:32 56.7 °F /  13.7 °C 47.0 °F /  8.3 °C 30.09in /  1018.8hPa NNW 4.9mph /  7.9km/h 9.2mph /  14.8km/h 70% 0.00in /  0mm 0.0 W/m2
20:37 56.6 °F /  13.7 °C 46.9 °F /  8.3 °C 30.09in /  1018.8hPa WNW 4.3mph /  6.9km/h 5.8mph /  9.3km/h 70% 0.00in /  0mm 0.0 W/m2
20:42 56.5 °F /  13.6 °C 47.2 °F /  8.4 °C 30.09in /  1018.8hPa NW 6.2mph /  10km/h 8.1mph /  13km/h 71% 0.00in /  0mm 0.0 W/m2
20:47 56.5 °F /  13.6 °C 47.2 °F /  8.4 °C 30.09in /  1018.8hPa NW 7.1mph /  11.4km/h 8.8mph /  14.2km/h 71% 0.00in /  0mm 0.0 W/m2
20:52 56.4 °F /  13.6 °C 47.1 °F /  8.4 °C 30.09in /  1018.8hPa NW 6.7mph /  10.8km/h 10.4mph /  16.7km/h 71% 0.00in /  0mm 0.0 W/m2
20:57 56.3 °F /  13.5 °C 47.0 °F /  8.3 °C 30.10in /  1019.2hPa WNW 6.1mph /  9.8km/h 8.1mph /  13km/h 71% 0.00in /  0mm 0.0 W/m2
21:02 56.1 °F /  13.4 °C 46.4 °F /  8 °C 30.10in /  1019.2hPa NW 6.9mph /  11.1km/h 8.1mph /  13km/h 70% 0.00in /  0mm 0.0 W/m2
21:07 56.0 °F /  13.3 °C 46.4 °F /  8 °C 30.10in /  1019.2hPa NNW 6.4mph /  10.3km/h 6.4mph /  10.3km/h 70% 0.00in /  0mm 0.0 W/m2
21:12 55.8 °F /  13.2 °C 46.2 °F /  7.9 °C 30.10in /  1019.2hPa NW 5.3mph /  8.5km/h 8.1mph /  13km/h 70% 0.00in /  0mm 0.0 W/m2
21:17 55.6 °F /  13.1 °C 46.3 °F /  7.9 °C 30.10in /  1019.2hPa NNW 3.3mph /  5.3km/h 8.8mph /  14.2km/h 71% 0.00in /  0mm 0.0 W/m2
21:23 55.4 °F /  13 °C 46.2 °F /  7.9 °C 30.10in /  1019.2hPa NW 3.7mph /  6km/h 5.8mph /  9.3km/h 71% 0.00in /  0mm 0.0 W/m2
21:28 55.2 °F /  12.9 °C 46.0 °F /  7.8 °C 30.11in /  1019.5hPa NW 5.1mph /  8.2km/h 6.9mph /  11.1km/h 71% 0.00in /  0mm 0.0 W/m2
21:33 55.0 °F /  12.8 °C 46.1 °F /  7.8 °C 30.11in /  1019.5hPa WNW 3.9mph /  6.3km/h 4.6mph /  7.4km/h 72% 0.00in /  0mm 0.0 W/m2
21:38 54.8 °F /  12.7 °C 45.9 °F /  7.7 °C 30.11in /  1019.5hPa North 4.7mph /  7.6km/h 8.1mph /  13km/h 72% 0.00in /  0mm 0.0 W/m2
21:43 54.6 °F /  12.6 °C 46.1 °F /  7.8 °C 30.11in /  1019.5hPa NW 3.1mph /  5km/h 5.8mph /  9.3km/h 73% 0.00in /  0mm 0.0 W/m2
21:48 54.4 °F /  12.4 °C 45.9 °F /  7.7 °C 30.11in /  1019.5hPa WNW 3.0mph /  4.8km/h 4.6mph /  7.4km/h 73% 0.00in /  0mm 0.0 W/m2
21:53 54.3 °F /  12.4 °C 45.8 °F /  7.7 °C 30.11in /  1019.5hPa WNW 3.9mph /  6.3km/h 6.9mph /  11.1km/h 73% 0.00in /  0mm 0.0 W/m2
21:58 54.1 °F /  12.3 °C 46.0 °F /  7.8 °C 30.11in /  1019.5hPa NW 2.8mph /  4.5km/h 4.6mph /  7.4km/h 74% 0.00in /  0mm 0.0 W/m2
22:03 53.9 °F /  12.2 °C 45.8 °F /  7.7 °C 30.11in /  1019.5hPa North 2.2mph /  3.5km/h 3.5mph /  5.6km/h 74% 0.00in /  0mm 0.0 W/m2
22:08 53.7 °F /  12.1 °C 45.6 °F /  7.6 °C 30.11in /  1019.5hPa NW 3.1mph /  5km/h 4.6mph /  7.4km/h 74% 0.00in /  0mm 0.0 W/m2
22:13 53.6 °F /  12 °C 45.9 °F /  7.7 °C 30.11in /  1019.5hPa WNW 2.1mph /  3.4km/h 4.6mph /  7.4km/h 75% 0.00in /  0mm 0.0 W/m2
22:18 53.4 °F /  11.9 °C 45.7 °F /  7.6 °C 30.11in /  1019.5hPa WNW 1.9mph /  3.1km/h 4.6mph /  7.4km/h 75% 0.00in /  0mm 0.0 W/m2
22:23 53.4 °F /  11.9 °C 45.7 °F /  7.6 °C 30.11in /  1019.5hPa NW 2.4mph /  3.9km/h 4.4mph /  7.1km/h 75% 0.00in /  0mm 0.0 W/m2
22:28 53.3 °F /  11.8 °C 45.6 °F /  7.6 °C 30.11in /  1019.5hPa WNW 2.2mph /  3.5km/h 2.3mph /  3.7km/h 75% 0.00in /  0mm 0.0 W/m2
22:33 53.0 °F /  11.7 °C 45.3 °F /  7.4 °C 30.11in /  1019.5hPa NW 0.8mph /  1.3km/h 1.2mph /  1.9km/h 75% 0.00in /  0mm 0.0 W/m2
22:38 52.8 °F /  11.6 °C 45.1 °F /  7.3 °C 30.11in /  1019.5hPa NNW 0.9mph /  1.4km/h 2.3mph /  3.7km/h 75% 0.00in /  0mm 0.0 W/m2
22:43 52.6 °F /  11.4 °C 44.9 °F /  7.2 °C 30.11in /  1019.5hPa NNW 0.9mph /  1.4km/h 2.3mph /  3.7km/h 75% 0.00in /  0mm 0.0 W/m2
22:49 52.5 °F /  11.4 °C 45.2 °F /  7.3 °C 30.11in /  1019.5hPa WNW 1.2mph /  1.9km/h 2.3mph /  3.7km/h 76% 0.00in /  0mm 0.0 W/m2
22:54 52.3 °F /  11.3 °C 45.0 °F /  7.2 °C 30.12in /  1019.9hPa WNW 1.3mph /  2.1km/h 2.3mph /  3.7km/h 76% 0.00in /  0mm 0.0 W/m2
22:59 52.3 °F /  11.3 °C 45.0 °F /  7.2 °C 30.11in /  1019.5hPa NW 0.1mph /  0.2km/h 2.3mph /  3.7km/h 76% 0.00in /  0mm 0.0 W/m2
23:04 52.1 °F /  11.2 °C 44.8 °F /  7.1 °C 30.11in /  1019.5hPa Calm     76% 0.00in /  0mm 0.0 W/m2
23:09 51.9 °F /  11.1 °C 44.6 °F /  7 °C 30.11in /  1019.5hPa Calm     76% 0.00in /  0mm 0.0 W/m2
23:14 51.7 °F /  10.9 °C 44.7 °F /  7.1 °C 30.11in /  1019.5hPa Calm     77% 0.00in /  0mm 0.0 W/m2
23:19 51.5 °F /  10.8 °C 44.5 °F /  6.9 °C 30.12in /  1019.9hPa NW 1.2mph /  1.9km/h 2.3mph /  3.7km/h 77% 0.00in /  0mm 0.0 W/m2
23:24 51.4 °F /  10.8 °C 44.4 °F /  6.9 °C 30.12in /  1019.9hPa Calm     77% 0.00in /  0mm 0.0 W/m2
23:29 51.2 °F /  10.7 °C 44.6 °F /  7 °C 30.12in /  1019.9hPa WNW 1.3mph /  2.1km/h 2.3mph /  3.7km/h 78% 0.00in /  0mm 0.0 W/m2
23:34 51.0 °F /  10.6 °C 44.4 °F /  6.9 °C 30.12in /  1019.9hPa NNW 0.5mph /  0.8km/h 1.2mph /  1.9km/h 78% 0.00in /  0mm 0.0 W/m2
23:39 51.0 °F /  10.6 °C 44.7 °F /  7.1 °C 30.12in /  1019.9hPa NNW 0.4mph /  0.6km/h 2.3mph /  3.7km/h 79% 0.00in /  0mm 0.0 W/m2
23:44 50.8 °F /  10.4 °C 44.5 °F /  6.9 °C 30.12in /  1019.9hPa Calm     79% 0.00in /  0mm 0.0 W/m2
23:49 50.8 °F /  10.4 °C 44.5 °F /  6.9 °C 30.12in /  1019.9hPa Calm     79% 0.00in /  0mm 0.0 W/m2
23:54 50.8 °F /  10.4 °C 44.5 °F /  6.9 °C 30.12in /  1019.9hPa Calm     79% 0.00in /  0mm 0.0 W/m2
23:59 50.8 °F /  10.4 °C 44.5 °F /  6.9 °C 30.12in /  1019.9hPa Calm     79% 0.00in /  0mm 0.0 W/m2
Juneau County Weather
Compliments of Weather Underground - 3.25 mb